aviador You're here:

KARA Decoded Metar

LOUISIANA in LA, USA
Report Time2017-12-15 13:53:00
UTC Time2017-12-15 14:11:26
Flight Rules vfr VFR
Wind010° at 10 kt
W.Decomp.*RWY 34: 8.9 kt HW 4.5 kt RCW
W.Rank010° ranks 1
Current wind is above 010° avg. (8.0)
Visibility9999 m
Phenomena:N/A
Clouds:Overcast 100 Hf
Expected CloudBase > 2,800 ft AGL from Temp-Dew spread
Ceiling10,000 ft
Temp09°C (ISA -6)
Dew Point02°C (62% RH)
AAT3.7°C
QNH1023 hPa
Density Alt-886 ft
Elevation59 ft
Report Wrong Elevation
Raw Report
KARA 151353Z 01010KT 10SM OVC100 09/02 A3020 RMK AO2 SLP226
T00890022=

Extra information for KARA:More info

Metar Taf Metar & Taf Last 4 Metars F.Rules Stats Wind Profile Meteogram Temp Stats Airport Information Weather charts Add Link Nearby VenuesMetar ALERT Operation Metar Decoded Social comments

AIRNAV info for KARA